sensor_id;sensor_type;location;lat;lon;timestamp;noise_LAeq;noise_LA_min;noise_LA_max;noise_LA01;noise_LA95
74470;Laerm;62918;55.706;37.816;2023-10-13T00:00:01;60.14;52.00;65.94;;
74470;Laerm;62918;55.706;37.816;2023-10-13T00:00:52;53.58;46.76;60.09;;
74470;Laerm;62918;55.706;37.816;2023-10-13T00:01:27;57.85;52.44;64.08;;
74470;Laerm;62918;55.706;37.816;2023-10-13T00:01:59;60.19;45.96;74.10;;
74470;Laerm;62918;55.706;37.816;2023-10-13T00:02:31;51.71;45.29;57.13;;
74470;Laerm;62918;55.706;37.816;2023-10-13T00:03:04;57.03;49.63;64.19;;
74470;Laerm;62918;55.706;37.816;2023-10-13T00:03:36;58.74;46.75;67.78;;
74470;Laerm;62918;55.706;37.816;2023-10-13T00:04:07;50.04;46.06;54.93;;
74470;Laerm;62918;55.706;37.816;2023-10-13T00:04:38;58.86;50.41;71.63;;
74470;Laerm;62918;55.706;37.816;2023-10-13T00:05:09;52.77;44.78;62.48;;
74470;Laerm;62918;55.706;37.816;2023-10-13T00:05:40;51.49;44.70;59.55;;
74470;Laerm;62918;55.706;37.816;2023-10-13T00:06:11;51.84;44.08;58.85;;
74470;Laerm;62918;55.706;37.816;2023-10-13T00:06:42;50.46;44.09;54.55;;
74470;Laerm;62918;55.706;37.816;2023-10-13T00:07:13;56.54;48.98;63.81;;
74470;Laerm;62918;55.706;37.816;2023-10-13T00:07:43;57.67;51.14;64.38;;
74470;Laerm;62918;55.706;37.816;2023-10-13T00:08:14;53.43;49.16;59.21;;
74470;Laerm;62918;55.706;37.816;2023-10-13T00:08:45;57.60;49.74;64.56;;
74470;Laerm;62918;55.706;37.816;2023-10-13T00:09:16;59.06;49.25;65.93;;
74470;Laerm;62918;55.706;37.816;2023-10-13T00:09:47;56.80;47.65;65.40;;
74470;Laerm;62918;55.706;37.816;2023-10-13T00:10:17;55.22;49.58;60.91;;
74470;Laerm;62918;55.706;37.816;2023-10-13T00:10:49;56.43;51.93;63.17;;
74470;Laerm;62918;55.706;37.816;2023-10-13T00:11:19;55.64;49.07;64.88;;
74470;Laerm;62918;55.706;37.816;2023-10-13T00:11:53;61.26;48.76;70.19;;
74470;Laerm;62918;55.706;37.816;2023-10-13T00:12:24;53.04;45.91;59.91;;
74470;Laerm;62918;55.706;37.816;2023-10-13T00:12:55;50.75;46.14;59.63;;
74470;Laerm;62918;55.706;37.816;2023-10-13T00:13:35;52.26;44.75;59.56;;
74470;Laerm;62918;55.706;37.816;2023-10-13T00:14:13;56.41;43.99;65.35;;
74470;Laerm;62918;55.706;37.816;2023-10-13T00:14:46;52.20;46.03;60.57;;
74470;Laerm;62918;55.706;37.816;2023-10-13T00:15:21;56.77;50.16;62.05;;
74470;Laerm;62918;55.706;37.816;2023-10-13T00:15:58;56.74;45.39;62.15;;
74470;Laerm;62918;55.706;37.816;2023-10-13T00:16:29;46.38;44.07;50.31;;
74470;Laerm;62918;55.706;37.816;2023-10-13T00:17:05;48.84;44.52;52.59;;
74470;Laerm;62918;55.706;37.816;2023-10-13T00:17:35;53.21;43.23;63.33;;
74470;Laerm;62918;55.706;37.816;2023-10-13T00:18:08;54.63;43.95;67.44;;
74470;Laerm;62918;55.706;37.816;2023-10-13T00:18:45;48.34;43.48;61.08;;
74470;Laerm;62918;55.706;37.816;2023-10-13T00:19:16;60.52;45.44;67.82;;
74470;Laerm;62918;55.706;37.816;2023-10-13T00:19:46;53.94;45.67;65.08;;
74470;Laerm;62918;55.706;37.816;2023-10-13T00:20:17;51.17;43.66;60.27;;
74470;Laerm;62918;55.706;37.816;2023-10-13T00:21:04;57.74;44.92;66.79;;
74470;Laerm;62918;55.706;37.816;2023-10-13T00:21:42;49.96;44.54;54.83;;
74470;Laerm;62918;55.706;37.816;2023-10-13T00:22:14;54.32;45.34;60.60;;
74470;Laerm;62918;55.706;37.816;2023-10-13T00:22:53;52.79;44.28;62.91;;
74470;Laerm;62918;55.706;37.816;2023-10-13T00:23:23;55.35;42.98;80.40;;
74470;Laerm;62918;55.706;37.816;2023-10-13T00:23:58;52.10;44.25;61.35;;
74470;Laerm;62918;55.706;37.816;2023-10-13T00:24:31;52.26;45.76;58.23;;
74470;Laerm;62918;55.706;37.816;2023-10-13T00:25:09;59.35;45.35;72.14;;
74470;Laerm;62918;55.706;37.816;2023-10-13T00:25:50;56.43;43.65;70.21;;
74470;Laerm;62918;55.706;37.816;2023-10-13T00:26:28;57.42;43.87;65.91;;
74470;Laerm;62918;55.706;37.816;2023-10-13T00:26:58;56.05;49.35;61.21;;
74470;Laerm;62918;55.706;37.816;2023-10-13T00:27:31;49.17;45.01;55.36;;
74470;Laerm;62918;55.706;37.816;2023-10-13T00:28:06;48.22;44.26;54.93;;
74470;Laerm;62918;55.706;37.816;2023-10-13T00:28:40;54.01;44.81;62.41;;
74470;Laerm;62918;55.706;37.816;2023-10-13T00:29:17;52.02;45.00;60.93;;
74470;Laerm;62918;55.706;37.816;2023-10-13T00:29:48;54.64;46.96;59.52;;
74470;Laerm;62918;55.706;37.816;2023-10-13T00:30:20;53.05;46.84;63.18;;
74470;Laerm;62918;55.706;37.816;2023-10-13T00:31:03;57.12;46.67;66.24;;
74470;Laerm;62918;55.706;37.816;2023-10-13T00:31:44;60.74;49.04;68.96;;
74470;Laerm;62918;55.706;37.816;2023-10-13T00:32:18;58.15;50.01;75.35;;
74470;Laerm;62918;55.706;37.816;2023-10-13T00:32:57;58.00;45.99;67.59;;
74470;Laerm;62918;55.706;37.816;2023-10-13T00:33:27;49.08;46.01;51.87;;
74470;Laerm;62918;55.706;37.816;2023-10-13T00:33:59;47.66;45.91;49.91;;
74470;Laerm;62918;55.706;37.816;2023-10-13T00:34:39;50.01;46.19;55.39;;
74470;Laerm;62918;55.706;37.816;2023-10-13T00:35:11;50.13;46.23;54.56;;
74470;Laerm;62918;55.706;37.816;2023-10-13T00:35:44;48.15;45.74;51.92;;
74470;Laerm;62918;55.706;37.816;2023-10-13T00:36:16;54.63;45.50;59.81;;
74470;Laerm;62918;55.706;37.816;2023-10-13T00:36:49;52.89;46.88;59.43;;
74470;Laerm;62918;55.706;37.816;2023-10-13T00:37:40;50.05;46.18;64.22;;
74470;Laerm;62918;55.706;37.816;2023-10-13T00:38:17;50.00;46.11;67.73;;
74470;Laerm;62918;55.706;37.816;2023-10-13T00:38:48;61.23;48.47;73.78;;
74470;Laerm;62918;55.706;37.816;2023-10-13T00:39:20;49.12;46.79;54.45;;
74470;Laerm;62918;55.706;37.816;2023-10-13T00:39:52;50.53;47.12;57.28;;
74470;Laerm;62918;55.706;37.816;2023-10-13T00:40:27;55.36;47.23;63.83;;
74470;Laerm;62918;55.706;37.816;2023-10-13T00:41:00;51.90;46.63;61.91;;
74470;Laerm;62918;55.706;37.816;2023-10-13T00:41:37;52.77;46.41;58.86;;
74470;Laerm;62918;55.706;37.816;2023-10-13T00:42:34;61.27;47.79;74.27;;
74470;Laerm;62918;55.706;37.816;2023-10-13T00:43:22;57.38;46.92;66.59;;
74470;Laerm;62918;55.706;37.816;2023-10-13T00:43:53;53.59;46.47;60.00;;
74470;Laerm;62918;55.706;37.816;2023-10-13T00:44:37;55.61;47.01;62.74;;
74470;Laerm;62918;55.706;37.816;2023-10-13T00:45:12;53.42;47.32;60.77;;
74470;Laerm;62918;55.706;37.816;2023-10-13T00:45:57;52.71;48.75;57.34;;
74470;Laerm;62918;55.706;37.816;2023-10-13T00:46:28;55.95;47.07;63.08;;
74470;Laerm;62918;55.706;37.816;2023-10-13T00:47:04;52.10;46.12;70.32;;
74470;Laerm;62918;55.706;37.816;2023-10-13T00:47:38;50.14;45.99;63.53;;
74470;Laerm;62918;55.706;37.816;2023-10-13T00:48:08;54.41;45.51;67.26;;
74470;Laerm;62918;55.706;37.816;2023-10-13T00:48:42;50.59;45.48;56.49;;
74470;Laerm;62918;55.706;37.816;2023-10-13T00:49:14;48.06;45.17;51.53;;
74470;Laerm;62918;55.706;37.816;2023-10-13T00:49:45;49.06;45.99;57.39;;
74470;Laerm;62918;55.706;37.816;2023-10-13T00:50:18;49.53;46.09;57.78;;
74470;Laerm;62918;55.706;37.816;2023-10-13T00:50:48;53.84;46.44;66.23;;
74470;Laerm;62918;55.706;37.816;2023-10-13T00:51:19;55.56;49.68;67.11;;
74470;Laerm;62918;55.706;37.816;2023-10-13T00:52:02;53.26;47.30;60.39;;
74470;Laerm;62918;55.706;37.816;2023-10-13T00:52:35;58.19;50.06;67.00;;
74470;Laerm;62918;55.706;37.816;2023-10-13T00:53:07;51.03;48.59;52.92;;
74470;Laerm;62918;55.706;37.816;2023-10-13T00:53:39;56.63;48.74;65.61;;
74470;Laerm;62918;55.706;37.816;2023-10-13T00:54:17;52.08;46.24;59.32;;
74470;Laerm;62918;55.706;37.816;2023-10-13T00:54:49;61.51;45.91;70.51;;
74470;Laerm;62918;55.706;37.816;2023-10-13T00:55:19;55.51;44.63;62.93;;
74470;Laerm;62918;55.706;37.816;2023-10-13T00:55:53;48.70;44.92;53.63;;
74470;Laerm;62918;55.706;37.816;2023-10-13T00:56:26;49.31;44.57;55.86;;
74470;Laerm;62918;55.706;37.816;2023-10-13T00:57:01;58.47;49.02;66.97;;
74470;Laerm;62918;55.706;37.816;2023-10-13T00:57:42;56.65;46.06;64.12;;
74470;Laerm;62918;55.706;37.816;2023-10-13T00:58:14;50.46;43.69;56.59;;
74470;Laerm;62918;55.706;37.816;2023-10-13T00:58:45;46.71;43.97;50.61;;
74470;Laerm;62918;55.706;37.816;2023-10-13T00:59:23;52.87;45.40;58.08;;
74470;Laerm;62918;55.706;37.816;2023-10-13T00:59:56;49.90;44.09;59.28;;
74470;Laerm;62918;55.706;37.816;2023-10-13T01:00:28;46.25;43.39;48.66;;
74470;Laerm;62918;55.706;37.816;2023-10-13T01:00:59;49.61;43.72;53.59;;
74470;Laerm;62918;55.706;37.816;2023-10-13T01:01:47;58.03;44.07;67.53;;
74470;Laerm;62918;55.706;37.816;2023-10-13T01:02:24;58.94;45.00;68.58;;
74470;Laerm;62918;55.706;37.816;2023-10-13T01:03:07;53.17;44.97;58.18;;
74470;Laerm;62918;55.706;37.816;2023-10-13T01:03:37;48.09;44.60;52.24;;
74470;Laerm;62918;55.706;37.816;2023-10-13T01:04:09;47.07;44.09;56.56;;
74470;Laerm;62918;55.706;37.816;2023-10-13T01:04:42;51.94;44.80;62.45;;
74470;Laerm;62918;55.706;37.816;2023-10-13T01:05:13;62.44;47.16;69.82;;
74470;Laerm;62918;55.706;37.816;2023-10-13T01:05:50;48.51;44.33;53.21;;
74470;Laerm;62918;55.706;37.816;2023-10-13T01:06:25;48.31;44.42;56.11;;
74470;Laerm;62918;55.706;37.816;2023-10-13T01:06:57;63.37;49.10;73.40;;
74470;Laerm;62918;55.706;37.816;2023-10-13T01:07:27;55.39;45.42;61.45;;
74470;Laerm;62918;55.706;37.816;2023-10-13T01:08:01;53.80;48.60;61.15;;
74470;Laerm;62918;55.706;37.816;2023-10-13T01:08:33;49.35;44.04;57.72;;
74470;Laerm;62918;55.706;37.816;2023-10-13T01:09:09;46.01;43.50;50.67;;
74470;Laerm;62918;55.706;37.816;2023-10-13T01:09:49;46.59;44.05;48.93;;
74470;Laerm;62918;55.706;37.816;2023-10-13T01:10:22;54.01;45.03;62.36;;
74470;Laerm;62918;55.706;37.816;2023-10-13T01:10:56;57.90;48.69;64.07;;
74470;Laerm;62918;55.706;37.816;2023-10-13T01:11:26;51.74;44.78;56.83;;
74470;Laerm;62918;55.706;37.816;2023-10-13T01:11:57;46.74;43.11;61.48;;
74470;Laerm;62918;55.706;37.816;2023-10-13T01:12:31;49.46;44.54;55.54;;
74470;Laerm;62918;55.706;37.816;2023-10-13T01:13:01;47.59;43.62;54.72;;
74470;Laerm;62918;55.706;37.816;2023-10-13T01:13:33;56.80;44.87;65.49;;
74470;Laerm;62918;55.706;37.816;2023-10-13T01:14:06;54.27;47.97;59.43;;
74470;Laerm;62918;55.706;37.816;2023-10-13T01:14:37;60.26;52.78;65.25;;
74470;Laerm;62918;55.706;37.816;2023-10-13T01:15:08;57.98;46.49;66.58;;
74470;Laerm;62918;55.706;37.816;2023-10-13T01:15:41;48.94;43.57;55.01;;
74470;Laerm;62918;55.706;37.816;2023-10-13T01:16:11;45.79;42.79;49.84;;
74470;Laerm;62918;55.706;37.816;2023-10-13T01:16:42;52.63;46.89;61.80;;
74470;Laerm;62918;55.706;37.816;2023-10-13T01:17:16;52.68;46.20;61.28;;
74470;Laerm;62918;55.706;37.816;2023-10-13T01:17:46;52.39;46.22;57.29;;
74470;Laerm;62918;55.706;37.816;2023-10-13T01:18:17;57.65;49.92;64.15;;
74470;Laerm;62918;55.706;37.816;2023-10-13T01:18:48;57.09;46.38;67.90;;
74470;Laerm;62918;55.706;37.816;2023-10-13T01:19:19;64.24;49.27;75.91;;
74470;Laerm;62918;55.706;37.816;2023-10-13T01:19:54;51.72;43.65;58.31;;
74470;Laerm;62918;55.706;37.816;2023-10-13T01:20:29;48.01;44.57;52.57;;
74470;Laerm;62918;55.706;37.816;2023-10-13T01:20:59;58.48;48.80;65.49;;
74470;Laerm;62918;55.706;37.816;2023-10-13T01:21:29;55.33;45.07;63.73;;
74470;Laerm;62918;55.706;37.816;2023-10-13T01:22:00;50.23;45.18;57.61;;
74470;Laerm;62918;55.706;37.816;2023-10-13T01:22:36;53.60;48.62;61.08;;
74470;Laerm;62918;55.706;37.816;2023-10-13T01:23:10;55.67;48.10;64.81;;
74470;Laerm;62918;55.706;37.816;2023-10-13T01:23:48;54.81;47.63;63.17;;
74470;Laerm;62918;55.706;37.816;2023-10-13T01:24:21;55.02;45.71;67.07;;
74470;Laerm;62918;55.706;37.816;2023-10-13T01:24:54;59.32;47.62;68.64;;
74470;Laerm;62918;55.706;37.816;2023-10-13T01:25:34;51.62;46.93;58.69;;
74470;Laerm;62918;55.706;37.816;2023-10-13T01:26:05;58.30;45.32;68.50;;
74470;Laerm;62918;55.706;37.816;2023-10-13T01:26:36;54.98;46.19;62.61;;
74470;Laerm;62918;55.706;37.816;2023-10-13T01:27:09;48.92;44.29;55.61;;
74470;Laerm;62918;55.706;37.816;2023-10-13T01:27:50;57.36;44.56;66.45;;
74470;Laerm;62918;55.706;37.816;2023-10-13T01:28:22;56.07;46.13;64.59;;
74470;Laerm;62918;55.706;37.816;2023-10-13T01:28:58;55.84;47.21;61.56;;
74470;Laerm;62918;55.706;37.816;2023-10-13T01:29:29;53.88;45.23;61.96;;
74470;Laerm;62918;55.706;37.816;2023-10-13T01:30:00;61.77;52.80;69.49;;
74470;Laerm;62918;55.706;37.816;2023-10-13T01:30:36;53.75;49.08;59.33;;
74470;Laerm;62918;55.706;37.816;2023-10-13T01:31:09;64.68;50.25;75.34;;
74470;Laerm;62918;55.706;37.816;2023-10-13T01:31:41;64.06;52.63;76.61;;
74470;Laerm;62918;55.706;37.816;2023-10-13T01:32:17;61.75;50.00;73.21;;
74470;Laerm;62918;55.706;37.816;2023-10-13T01:32:51;57.43;47.49;64.39;;
74470;Laerm;62918;55.706;37.816;2023-10-13T01:33:23;57.90;45.94;67.64;;
74470;Laerm;62918;55.706;37.816;2023-10-13T01:33:57;48.55;44.67;56.11;;
74470;Laerm;62918;55.706;37.816;2023-10-13T01:34:31;47.61;44.32;63.50;;
74470;Laerm;62918;55.706;37.816;2023-10-13T01:35:04;50.44;44.58;62.32;;
74470;Laerm;62918;55.706;37.816;2023-10-13T01:35:37;49.65;43.97;58.90;;
74470;Laerm;62918;55.706;37.816;2023-10-13T01:36:17;52.10;46.31;56.76;;
74470;Laerm;62918;55.706;37.816;2023-10-13T01:36:52;47.29;43.98;60.33;;
74470;Laerm;62918;55.706;37.816;2023-10-13T01:37:23;55.00;44.33;62.59;;
74470;Laerm;62918;55.706;37.816;2023-10-13T01:37:53;56.35;50.32;63.37;;
74470;Laerm;62918;55.706;37.816;2023-10-13T01:38:24;56.54;46.77;62.58;;
74470;Laerm;62918;55.706;37.816;2023-10-13T01:38:58;57.77;47.11;67.31;;
74470;Laerm;62918;55.706;37.816;2023-10-13T01:39:31;58.73;48.47;64.50;;
74470;Laerm;62918;55.706;37.816;2023-10-13T01:40:02;54.86;45.63;63.64;;
74470;Laerm;62918;55.706;37.816;2023-10-13T01:40:33;59.25;47.53;67.05;;
74470;Laerm;62918;55.706;37.816;2023-10-13T01:41:05;58.02;45.41;66.11;;
74470;Laerm;62918;55.706;37.816;2023-10-13T01:41:36;47.36;44.24;52.55;;
74470;Laerm;62918;55.706;37.816;2023-10-13T01:42:09;51.65;45.83;61.02;;
74470;Laerm;62918;55.706;37.816;2023-10-13T01:42:47;53.78;44.69;63.21;;
74470;Laerm;62918;55.706;37.816;2023-10-13T01:43:25;57.60;46.83;66.93;;
74470;Laerm;62918;55.706;37.816;2023-10-13T01:43:55;54.92;46.50;62.03;;
74470;Laerm;62918;55.706;37.816;2023-10-13T01:44:27;60.64;44.28;68.80;;
74470;Laerm;62918;55.706;37.816;2023-10-13T01:45:01;52.70;44.66;60.16;;
74470;Laerm;62918;55.706;37.816;2023-10-13T01:45:35;47.39;44.10;52.44;;
74470;Laerm;62918;55.706;37.816;2023-10-13T01:46:06;51.22;44.49;57.79;;
74470;Laerm;62918;55.706;37.816;2023-10-13T01:46:37;52.30;45.57;60.50;;
74470;Laerm;62918;55.706;37.816;2023-10-13T01:47:08;55.11;46.33;64.25;;
74470;Laerm;62918;55.706;37.816;2023-10-13T01:47:39;56.08;47.92;62.90;;
74470;Laerm;62918;55.706;37.816;2023-10-13T01:48:10;53.54;46.97;58.55;;
74470;Laerm;62918;55.706;37.816;2023-10-13T01:48:42;53.62;46.22;59.15;;
74470;Laerm;62918;55.706;37.816;2023-10-13T01:49:14;55.76;46.39;62.40;;
74470;Laerm;62918;55.706;37.816;2023-10-13T01:49:49;59.36;46.98;65.40;;
74470;Laerm;62918;55.706;37.816;2023-10-13T01:50:21;47.73;44.42;51.67;;
74470;Laerm;62918;55.706;37.816;2023-10-13T01:50:58;59.58;44.76;68.30;;
74470;Laerm;62918;55.706;37.816;2023-10-13T01:51:35;46.33;43.66;49.46;;
74470;Laerm;62918;55.706;37.816;2023-10-13T01:52:10;50.69;44.65;57.85;;
74470;Laerm;62918;55.706;37.816;2023-10-13T01:52:46;48.98;44.02;58.78;;
74470;Laerm;62918;55.706;37.816;2023-10-13T01:53:16;62.60;46.90;68.74;;
74470;Laerm;62918;55.706;37.816;2023-10-13T01:53:50;56.77;45.40;65.94;;
74470;Laerm;62918;55.706;37.816;2023-10-13T01:54:26;52.19;44.90;58.79;;
74470;Laerm;62918;55.706;37.816;2023-10-13T01:54:57;62.45;45.68;70.67;;
74470;Laerm;62918;55.706;37.816;2023-10-13T01:55:31;55.66;45.81;62.48;;
74470;Laerm;62918;55.706;37.816;2023-10-13T01:56:09;51.77;47.30;58.82;;
74470;Laerm;62918;55.706;37.816;2023-10-13T01:56:44;52.15;46.17;60.96;;
74470;Laerm;62918;55.706;37.816;2023-10-13T01:57:15;59.50;47.03;69.22;;
74470;Laerm;62918;55.706;37.816;2023-10-13T01:57:47;62.97;51.26;80.40;;
74470;Laerm;62918;55.706;37.816;2023-10-13T01:58:18;62.84;56.67;69.20;;
74470;Laerm;62918;55.706;37.816;2023-10-13T01:58:53;58.30;48.44;65.65;;
74470;Laerm;62918;55.706;37.816;2023-10-13T01:59:23;57.92;50.88;63.52;;
74470;Laerm;62918;55.706;37.816;2023-10-13T01:59:54;56.02;49.92;64.36;;
74470;Laerm;62918;55.706;37.816;2023-10-13T02:00:35;67.58;46.52;83.39;;
74470;Laerm;62918;55.706;37.816;2023-10-13T02:01:11;60.87;47.22;69.54;;
74470;Laerm;62918;55.706;37.816;2023-10-13T02:01:41;63.29;48.04;71.19;;
74470;Laerm;62918;55.706;37.816;2023-10-13T02:02:12;48.66;44.83;52.50;;
74470;Laerm;62918;55.706;37.816;2023-10-13T02:02:43;47.84;44.35;52.52;;
74470;Laerm;62918;55.706;37.816;2023-10-13T02:03:15;49.72;44.49;55.97;;
74470;Laerm;62918;55.706;37.816;2023-10-13T02:03:46;57.63;51.13;65.34;;
74470;Laerm;62918;55.706;37.816;2023-10-13T02:04:18;64.01;52.13;72.22;;
74470;Laerm;62918;55.706;37.816;2023-10-13T02:04:51;54.69;47.12;59.77;;
74470;Laerm;62918;55.706;37.816;2023-10-13T02:05:30;53.75;48.06;59.87;;
74470;Laerm;62918;55.706;37.816;2023-10-13T02:06:06;52.25;47.84;62.01;;
74470;Laerm;62918;55.706;37.816;2023-10-13T02:06:40;59.30;52.79;64.52;;
74470;Laerm;62918;55.706;37.816;2023-10-13T02:07:10;56.65;51.30;60.96;;
74470;Laerm;62918;55.706;37.816;2023-10-13T02:07:45;61.07;50.67;67.57;;
74470;Laerm;62918;55.706;37.816;2023-10-13T02:08:20;59.57;49.52;65.25;;
74470;Laerm;62918;55.706;37.816;2023-10-13T02:08:54;52.02;46.09;57.22;;
74470;Laerm;62918;55.706;37.816;2023-10-13T02:09:27;52.91;46.10;60.71;;
74470;Laerm;62918;55.706;37.816;2023-10-13T02:10:00;55.09;50.45;59.79;;
74470;Laerm;62918;55.706;37.816;2023-10-13T02:10:34;55.42;49.72;60.47;;
74470;Laerm;62918;55.706;37.816;2023-10-13T02:11:05;57.54;49.61;64.60;;
74470;Laerm;62918;55.706;37.816;2023-10-13T02:11:41;58.48;50.67;67.93;;
74470;Laerm;62918;55.706;37.816;2023-10-13T02:12:12;58.29;46.27;66.60;;
74470;Laerm;62918;55.706;37.816;2023-10-13T02:12:42;50.37;46.73;56.44;;
74470;Laerm;62918;55.706;37.816;2023-10-13T02:13:14;61.79;47.42;68.64;;
74470;Laerm;62918;55.706;37.816;2023-10-13T02:13:48;58.11;45.89;66.67;;
74470;Laerm;62918;55.706;37.816;2023-10-13T02:14:21;57.61;46.68;66.77;;
74470;Laerm;62918;55.706;37.816;2023-10-13T02:14:52;55.27;46.55;62.86;;
74470;Laerm;62918;55.706;37.816;2023-10-13T02:15:23;58.77;49.45;66.02;;
74470;Laerm;62918;55.706;37.816;2023-10-13T02:15:57;61.14;54.27;67.78;;
74470;Laerm;62918;55.706;37.816;2023-10-13T02:16:32;61.95;54.39;66.88;;
74470;Laerm;62918;55.706;37.816;2023-10-13T02:17:02;58.06;50.92;65.01;;
74470;Laerm;62918;55.706;37.816;2023-10-13T02:17:42;60.49;49.90;67.78;;
74470;Laerm;62918;55.706;37.816;2023-10-13T02:18:15;58.91;52.90;63.38;;
74470;Laerm;62918;55.706;37.816;2023-10-13T02:18:51;65.28;49.01;80.34;;
74470;Laerm;62918;55.706;37.816;2023-10-13T02:19:24;60.76;50.14;66.16;;
74470;Laerm;62918;55.706;37.816;2023-10-13T02:19:57;59.56;50.64;66.52;;
74470;Laerm;62918;55.706;37.816;2023-10-13T02:20:28;55.53;48.99;61.88;;
74470;Laerm;62918;55.706;37.816;2023-10-13T02:21:04;59.82;50.56;68.48;;
74470;Laerm;62918;55.706;37.816;2023-10-13T02:21:35;58.04;48.86;65.40;;
74470;Laerm;62918;55.706;37.816;2023-10-13T02:22:15;56.92;47.02;66.55;;
74470;Laerm;62918;55.706;37.816;2023-10-13T02:23:00;57.07;47.85;63.01;;
74470;Laerm;62918;55.706;37.816;2023-10-13T02:23:30;61.32;50.47;72.14;;
74470;Laerm;62918;55.706;37.816;2023-10-13T02:24:01;60.81;49.25;68.79;;
74470;Laerm;62918;55.706;37.816;2023-10-13T02:24:35;58.79;51.21;63.89;;
74470;Laerm;62918;55.706;37.816;2023-10-13T02:25:10;59.71;52.82;65.94;;
74470;Laerm;62918;55.706;37.816;2023-10-13T02:25:47;62.50;53.81;82.95;;
74470;Laerm;62918;55.706;37.816;2023-10-13T02:26:18;56.30;51.73;62.76;;
74470;Laerm;62918;55.706;37.816;2023-10-13T02:27:00;57.31;48.63;75.02;;
74470;Laerm;62918;55.706;37.816;2023-10-13T02:27:35;58.03;51.13;69.01;;
74470;Laerm;62918;55.706;37.816;2023-10-13T02:28:11;59.16;54.13;68.75;;
74470;Laerm;62918;55.706;37.816;2023-10-13T02:28:44;58.61;52.52;67.26;;
74470;Laerm;62918;55.706;37.816;2023-10-13T02:29:21;62.79;54.24;68.35;;
74470;Laerm;62918;55.706;37.816;2023-10-13T02:29:51;57.08;52.34;61.57;;
74470;Laerm;62918;55.706;37.816;2023-10-13T02:30:28;59.08;51.41;64.40;;
74470;Laerm;62918;55.706;37.816;2023-10-13T02:31:04;51.07;47.17;57.54;;
74470;Laerm;62918;55.706;37.816;2023-10-13T02:31:35;56.85;47.35;65.72;;
74470;Laerm;62918;55.706;37.816;2023-10-13T02:32:07;50.76;46.19;58.16;;
74470;Laerm;62918;55.706;37.816;2023-10-13T02:32:45;52.03;46.24;58.56;;
74470;Laerm;62918;55.706;37.816;2023-10-13T02:33:17;57.56;48.32;68.08;;
74470;Laerm;62918;55.706;37.816;2023-10-13T02:33:59;59.43;49.51;67.44;;
74470;Laerm;62918;55.706;37.816;2023-10-13T02:34:31;62.71;52.23;69.86;;
74470;Laerm;62918;55.706;37.816;2023-10-13T02:35:02;64.36;55.37;71.27;;
74470;Laerm;62918;55.706;37.816;2023-10-13T02:35:38;55.35;52.36;61.23;;
74470;Laerm;62918;55.706;37.816;2023-10-13T02:36:11;62.52;52.91;69.60;;
74470;Laerm;62918;55.706;37.816;2023-10-13T02:36:52;57.15;50.39;70.37;;
74470;Laerm;62918;55.706;37.816;2023-10-13T02:37:24;55.40;50.70;62.51;;
74470;Laerm;62918;55.706;37.816;2023-10-13T02:37:55;62.69;55.08;70.32;;
74470;Laerm;62918;55.706;37.816;2023-10-13T02:38:29;59.68;52.54;66.35;;
74470;Laerm;62918;55.706;37.816;2023-10-13T02:39:08;61.57;52.89;67.52;;
74470;Laerm;62918;55.706;37.816;2023-10-13T02:39:40;61.84;55.51;66.32;;
74470;Laerm;62918;55.706;37.816;2023-10-13T02:40:11;63.68;55.33;71.11;;
74470;Laerm;62918;55.706;37.816;2023-10-13T02:40:42;64.70;56.78;70.61;;
74470;Laerm;62918;55.706;37.816;2023-10-13T02:41:14;58.33;52.67;63.26;;
74470;Laerm;62918;55.706;37.816;2023-10-13T02:41:56;55.73;47.73;64.67;;
74470;Laerm;62918;55.706;37.816;2023-10-13T02:42:26;57.46;53.16;69.69;;
74470;Laerm;62918;55.706;37.816;2023-10-13T02:42:57;56.64;50.14;68.12;;
74470;Laerm;62918;55.706;37.816;2023-10-13T02:43:27;65.17;58.94;70.23;;
74470;Laerm;62918;55.706;37.816;2023-10-13T02:44:05;66.86;49.58;86.28;;
74470;Laerm;62918;55.706;37.816;2023-10-13T02:44:36;64.79;50.44;84.47;;
74470;Laerm;62918;55.706;37.816;2023-10-13T02:45:09;53.82;48.01;63.21;;
74470;Laerm;62918;55.706;37.816;2023-10-13T02:45:51;59.97;48.52;66.10;;
74470;Laerm;62918;55.706;37.816;2023-10-13T02:46:27;56.33;49.15;65.16;;
74470;Laerm;62918;55.706;37.816;2023-10-13T02:46:59;58.27;50.57;64.72;;
74470;Laerm;62918;55.706;37.816;2023-10-13T02:47:30;61.99;52.42;68.85;;
74470;Laerm;62918;55.706;37.816;2023-10-13T02:48:03;57.81;50.78;64.67;;
74470;Laerm;62918;55.706;37.816;2023-10-13T02:48:43;61.39;53.26;66.84;;
74470;Laerm;62918;55.706;37.816;2023-10-13T02:49:16;63.47;56.28;69.58;;
74470;Laerm;62918;55.706;37.816;2023-10-13T02:49:49;59.45;52.74;65.56;;
74470;Laerm;62918;55.706;37.816;2023-10-13T02:50:20;57.50;52.66;72.14;;
74470;Laerm;62918;55.706;37.816;2023-10-13T02:50:57;60.04;52.93;73.26;;
74470;Laerm;62918;55.706;37.816;2023-10-13T02:51:33;61.16;48.94;67.50;;
74470;Laerm;62918;55.706;37.816;2023-10-13T02:52:07;54.67;50.14;61.49;;
74470;Laerm;62918;55.706;37.816;2023-10-13T02:52:38;54.43;48.77;59.58;;
74470;Laerm;62918;55.706;37.816;2023-10-13T02:53:12;57.35;51.29;67.43;;
74470;Laerm;62918;55.706;37.816;2023-10-13T02:53:46;58.65;51.74;66.71;;
74470;Laerm;62918;55.706;37.816;2023-10-13T02:54:19;56.10;51.22;61.64;;
74470;Laerm;62918;55.706;37.816;2023-10-13T02:54:49;54.94;49.24;59.88;;
74470;Laerm;62918;55.706;37.816;2023-10-13T02:55:22;60.64;53.53;66.01;;
74470;Laerm;62918;55.706;37.816;2023-10-13T02:55:56;61.37;54.22;66.68;;
74470;Laerm;62918;55.706;37.816;2023-10-13T02:56:37;56.89;50.68;65.29;;
74470;Laerm;62918;55.706;37.816;2023-10-13T02:57:08;51.56;47.79;57.05;;
74470;Laerm;62918;55.706;37.816;2023-10-13T02:57:39;59.48;49.90;71.81;;
74470;Laerm;62918;55.706;37.816;2023-10-13T02:58:10;56.68;52.19;61.80;;
74470;Laerm;62918;55.706;37.816;2023-10-13T02:58:45;60.79;53.47;67.52;;
74470;Laerm;62918;55.706;37.816;2023-10-13T02:59:17;63.94;51.50;71.62;;
74470;Laerm;62918;55.706;37.816;2023-10-13T03:00:05;56.50;48.28;62.32;;
74470;Laerm;62918;55.706;37.816;2023-10-13T03:00:46;58.58;48.40;67.09;;
74470;Laerm;62918;55.706;37.816;2023-10-13T03:01:17;54.51;49.89;58.69;;
74470;Laerm;62918;55.706;37.816;2023-10-13T03:01:47;60.20;49.62;68.44;;
74470;Laerm;62918;55.706;37.816;2023-10-13T03:02:22;59.34;49.08;68.57;;
74470;Laerm;62918;55.706;37.816;2023-10-13T03:02:56;59.51;50.79;67.03;;
74470;Laerm;62918;55.706;37.816;2023-10-13T03:03:28;61.30;55.07;68.23;;
74470;Laerm;62918;55.706;37.816;2023-10-13T03:04:04;56.79;51.79;61.54;;
74470;Laerm;62918;55.706;37.816;2023-10-13T03:04:39;56.02;48.31;63.01;;
74470;Laerm;62918;55.706;37.816;2023-10-13T03:05:10;67.61;56.32;77.79;;
74470;Laerm;62918;55.706;37.816;2023-10-13T03:05:44;63.59;53.12;72.46;;
74470;Laerm;62918;55.706;37.816;2023-10-13T03:06:16;64.03;59.97;69.83;;
74470;Laerm;62918;55.706;37.816;2023-10-13T03:06:47;61.27;55.30;67.08;;